createdAt,value
2022-12-31T00:01:52.854Z,56.50
2022-12-31T00:04:21.570Z,51.50
2022-12-31T00:06:50.410Z,48.33
2022-12-31T00:09:19.565Z,51.22
2022-12-31T00:11:47.773Z,49.60
2022-12-31T00:14:17.007Z,46.70
2022-12-31T00:16:47.392Z,48.15
2022-12-31T00:19:15.647Z,49.72
2022-12-31T00:21:45.292Z,52.63
2022-12-31T00:24:13.913Z,47.53
2022-12-31T00:26:42.095Z,50.88
2022-12-31T00:29:13.377Z,48.75
2022-12-31T00:31:42.703Z,47.13
2022-12-31T00:34:12.834Z,52.03
2022-12-31T00:36:46.098Z,50.47
2022-12-31T00:39:14.655Z,48.95
2022-12-31T00:41:44.168Z,60.08
2022-12-31T00:44:13.320Z,47.38
2022-12-31T00:49:09.228Z,50.58
2022-12-31T00:51:39.118Z,48.03
2022-12-31T00:54:10.695Z,52.92
2022-12-31T00:56:39.531Z,52.95
2022-12-31T00:59:08.060Z,56.92
2022-12-31T01:01:38.458Z,50.55
2022-12-31T01:04:09.267Z,48.35
2022-12-31T01:06:43.460Z,47.60
2022-12-31T01:09:12.564Z,46.80
2022-12-31T01:11:41.473Z,44.20
2022-12-31T01:14:11.758Z,46.55
2022-12-31T01:16:43.609Z,44.80
2022-12-31T01:21:44.768Z,49.70
2022-12-31T01:24:13.297Z,44.35
2022-12-31T01:26:42.793Z,45.67
2022-12-31T01:29:13.934Z,52.78
2022-12-31T01:31:42.623Z,50.05
2022-12-31T01:34:11.420Z,52.10
2022-12-31T01:36:41.951Z,53.50
2022-12-31T01:39:13.180Z,57.58
2022-12-31T01:41:44.634Z,61.03
2022-12-31T01:44:50.560Z,66.35
2022-12-31T01:47:23.365Z,62.65
2022-12-31T01:50:00.039Z,67.63
2022-12-31T01:52:34.215Z,62.72
2022-12-31T01:55:08.855Z,87.28
2022-12-31T01:57:38.714Z,73.10
2022-12-31T02:00:10.222Z,70.60
2022-12-31T02:02:41.485Z,76.05
2022-12-31T02:05:18.472Z,72.72
2022-12-31T02:07:49.312Z,73.20
2022-12-31T02:10:20.181Z,81.30
2022-12-31T02:12:50.437Z,77.68
2022-12-31T02:15:21.009Z,74.97
2022-12-31T02:17:57.339Z,79.88
2022-12-31T02:20:43.202Z,74.35
2022-12-31T02:23:41.380Z,75.93
2022-12-31T02:26:42.676Z,71.32
2022-12-31T02:29:39.420Z,69.90
2022-12-31T02:32:15.209Z,70.93
2022-12-31T02:34:51.972Z,69.97
2022-12-31T02:37:23.923Z,67.32
2022-12-31T02:39:54.153Z,63.25
2022-12-31T02:42:23.751Z,62.72
2022-12-31T02:44:53.302Z,60.72
2022-12-31T02:47:34.969Z,62.92
2022-12-31T02:50:19.533Z,65.78
2022-12-31T02:52:58.837Z,64.43
2022-12-31T02:55:35.202Z,60.97
2022-12-31T02:58:13.901Z,67.47
2022-12-31T03:01:05.811Z,61.33
2022-12-31T03:03:38.872Z,72.32
2022-12-31T03:06:10.481Z,65.72
2022-12-31T03:08:57.498Z,63.15
2022-12-31T03:11:43.610Z,71.60
2022-12-31T03:14:12.851Z,68.35
2022-12-31T03:16:41.575Z,66.95
2022-12-31T03:19:29.102Z,68.22
2022-12-31T03:22:15.652Z,63.58
2022-12-31T03:25:01.682Z,63.58
2022-12-31T03:27:30.319Z,60.42
2022-12-31T03:29:58.967Z,60.97
2022-12-31T03:32:30.596Z,65.47
2022-12-31T03:35:00.784Z,72.22
2022-12-31T03:37:32.166Z,67.20
2022-12-31T03:40:03.055Z,70.97
2022-12-31T03:42:31.398Z,66.40
2022-12-31T03:45:01.246Z,69.40
2022-12-31T03:47:32.976Z,62.97
2022-12-31T03:50:06.584Z,62.60
2022-12-31T03:52:36.411Z,56.88
2022-12-31T03:55:05.352Z,61.67
2022-12-31T03:57:34.773Z,58.45
2022-12-31T04:00:03.646Z,58.72
2022-12-31T04:02:34.538Z,58.03
2022-12-31T04:05:05.287Z,54.47
2022-12-31T04:07:34.784Z,56.45
2022-12-31T04:10:03.988Z,56.63
2022-12-31T04:12:33.091Z,56.80
2022-12-31T04:15:01.574Z,58.20
2022-12-31T04:17:30.348Z,56.33
2022-12-31T04:19:58.732Z,55.92
2022-12-31T04:22:28.963Z,57.90
2022-12-31T04:24:57.180Z,60.25
2022-12-31T04:27:28.342Z,63.47
2022-12-31T04:29:56.906Z,70.13
2022-12-31T04:32:25.479Z,61.88
2022-12-31T04:34:53.885Z,69.57
2022-12-31T04:37:22.116Z,59.38
2022-12-31T04:39:52.201Z,66.35
2022-12-31T04:42:21.037Z,70.88
2022-12-31T04:44:49.542Z,78.30
2022-12-31T04:47:23.371Z,65.45
2022-12-31T04:49:52.815Z,64.43
2022-12-31T04:52:24.384Z,62.50
2022-12-31T04:54:54.151Z,65.35
2022-12-31T04:57:22.469Z,67.95
2022-12-31T04:59:55.977Z,68.88
2022-12-31T05:02:25.094Z,69.97
2022-12-31T05:04:53.899Z,67.68
2022-12-31T05:07:25.160Z,76.88
2022-12-31T05:09:57.865Z,84.22
2022-12-31T05:12:26.673Z,89.28
2022-12-31T05:14:54.971Z,79.03
2022-12-31T05:17:23.160Z,95.93
2022-12-31T05:19:51.706Z,87.68
2022-12-31T05:22:33.092Z,104.55
2022-12-31T05:25:04.058Z,96.63
2022-12-31T05:27:32.876Z,93.27
2022-12-31T05:30:01.475Z,110.10
2022-12-31T05:32:33.572Z,108.28
2022-12-31T05:37:35.813Z,99.63
2022-12-31T05:40:06.777Z,97.25
2022-12-31T05:42:36.338Z,102.78
2022-12-31T05:45:04.779Z,101.13
2022-12-31T05:47:33.303Z,97.00
2022-12-31T05:50:02.220Z,92.57
2022-12-31T05:52:30.849Z,88.82
2022-12-31T05:55:00.214Z,100.30
2022-12-31T05:57:30.357Z,90.20
2022-12-31T05:59:59.477Z,78.82
2022-12-31T06:02:27.908Z,78.00
2022-12-31T06:05:01.461Z,80.18
2022-12-31T06:07:30.121Z,74.70
2022-12-31T06:09:58.662Z,72.80
2022-12-31T06:12:28.513Z,72.75
2022-12-31T06:15:00.194Z,66.10
2022-12-31T06:17:29.556Z,71.47
2022-12-31T06:19:58.560Z,67.38
2022-12-31T06:22:27.346Z,68.03
2022-12-31T06:24:56.142Z,67.97
2022-12-31T06:27:24.683Z,65.30
2022-12-31T06:29:53.060Z,66.22
2022-12-31T06:32:23.311Z,63.38
2022-12-31T06:34:51.753Z,78.13
2022-12-31T06:37:20.268Z,75.93
2022-12-31T06:39:49.360Z,73.80
2022-12-31T06:42:18.737Z,66.57
2022-12-31T06:44:47.096Z,69.88
2022-12-31T06:47:15.622Z,70.60
2022-12-31T06:49:45.764Z,67.72
2022-12-31T06:52:14.389Z,62.45
2022-12-31T06:54:45.665Z,63.92
2022-12-31T06:57:14.419Z,66.07
2022-12-31T06:59:45.020Z,57.88
2022-12-31T07:02:27.005Z,62.47
2022-12-31T07:05:15.298Z,63.28
2022-12-31T07:07:57.505Z,64.13
2022-12-31T07:10:38.099Z,58.13
2022-12-31T07:13:23.823Z,68.45
2022-12-31T07:16:04.321Z,67.45
2022-12-31T07:18:41.338Z,63.50
2022-12-31T07:21:16.203Z,63.35
2022-12-31T07:23:47.063Z,67.35
2022-12-31T07:26:27.872Z,66.70
2022-12-31T07:29:06.484Z,66.88
2022-12-31T07:31:51.947Z,64.53
2022-12-31T07:34:31.095Z,63.03
2022-12-31T07:37:06.784Z,61.83
2022-12-31T07:39:44.817Z,62.33
2022-12-31T07:42:20.477Z,61.65
2022-12-31T07:45:02.609Z,54.28
2022-12-31T07:47:34.622Z,61.10
2022-12-31T07:50:04.274Z,63.08
2022-12-31T07:52:34.903Z,66.70
2022-12-31T07:55:04.227Z,66.07
2022-12-31T07:57:42.348Z,61.55
2022-12-31T08:00:16.315Z,64.20
2022-12-31T08:03:03.093Z,62.30
2022-12-31T08:05:34.798Z,55.28
2022-12-31T08:08:15.222Z,53.28
2022-12-31T08:10:53.010Z,50.95
2022-12-31T08:13:22.376Z,49.80
2022-12-31T08:15:51.373Z,46.92
2022-12-31T08:18:20.314Z,57.40
2022-12-31T08:21:06.784Z,46.53
2022-12-31T08:23:41.811Z,46.85
2022-12-31T08:26:24.308Z,45.35
2022-12-31T08:29:02.869Z,44.58
2022-12-31T08:31:38.211Z,43.80
2022-12-31T08:34:14.545Z,45.00
2022-12-31T08:36:49.734Z,46.20
2022-12-31T08:39:33.930Z,46.35
2022-12-31T08:42:06.307Z,47.55
2022-12-31T08:44:41.376Z,46.90
2022-12-31T08:47:18.167Z,50.53
2022-12-31T08:49:47.004Z,51.40
2022-12-31T08:52:25.441Z,54.80
2022-12-31T08:54:58.237Z,53.50
2022-12-31T08:57:33.860Z,58.80
2022-12-31T09:00:09.065Z,55.72
2022-12-31T09:02:53.533Z,62.17
2022-12-31T09:05:27.175Z,60.80
2022-12-31T09:08:06.097Z,59.53
2022-12-31T09:10:44.269Z,57.58
2022-12-31T09:13:19.433Z,61.60
2022-12-31T09:15:59.747Z,54.58
2022-12-31T09:18:33.156Z,54.05
2022-12-31T09:21:02.036Z,55.60
2022-12-31T09:23:30.729Z,58.92
2022-12-31T09:26:15.687Z,55.65
2022-12-31T09:28:53.392Z,55.13
2022-12-31T09:31:32.857Z,53.75
2022-12-31T09:34:06.678Z,60.92
2022-12-31T09:36:42.911Z,56.03
2022-12-31T09:39:17.029Z,53.35
2022-12-31T09:42:12.897Z,52.60
2022-12-31T09:44:58.097Z,50.20
2022-12-31T09:47:57.777Z,50.55
2022-12-31T09:50:50.832Z,51.75
2022-12-31T09:53:38.405Z,47.95
2022-12-31T09:56:18.426Z,49.25
2022-12-31T09:58:58.631Z,46.47
2022-12-31T10:01:49.785Z,48.50
2022-12-31T10:04:57.359Z,49.83
2022-12-31T10:07:45.984Z,46.20
2022-12-31T10:10:24.013Z,46.20
2022-12-31T10:13:31.858Z,46.22
2022-12-31T10:16:43.768Z,44.00
2022-12-31T10:19:44.424Z,45.75
2022-12-31T10:22:39.585Z,43.47
2022-12-31T10:25:37.888Z,39.90
2022-12-31T10:28:20.421Z,43.88
2022-12-31T10:31:04.646Z,44.70
2022-12-31T10:33:50.583Z,44.63
2022-12-31T10:36:29.067Z,42.70
2022-12-31T10:39:12.837Z,42.05
2022-12-31T10:42:00.372Z,44.40
2022-12-31T10:45:08.440Z,47.70
2022-12-31T10:48:16.271Z,47.38
2022-12-31T10:51:07.871Z,45.35
2022-12-31T10:54:26.034Z,47.10
2022-12-31T10:57:32.566Z,48.03
2022-12-31T11:00:12.695Z,53.83
2022-12-31T11:03:29.552Z,51.08
2022-12-31T11:06:48.322Z,49.15
2022-12-31T11:09:56.112Z,58.13
2022-12-31T11:12:58.321Z,50.75
2022-12-31T11:15:50.274Z,51.90
2022-12-31T11:18:28.357Z,57.35
2022-12-31T11:21:11.771Z,60.05
2022-12-31T11:23:56.594Z,59.00
2022-12-31T11:26:36.411Z,62.28
2022-12-31T11:29:25.678Z,66.68
2022-12-31T11:32:12.043Z,64.07
2022-12-31T11:35:04.646Z,69.88
2022-12-31T11:37:42.058Z,72.82
2022-12-31T11:40:41.441Z,72.35
2022-12-31T11:43:23.835Z,74.85
2022-12-31T11:46:26.789Z,72.63
2022-12-31T11:49:16.619Z,69.57
2022-12-31T11:52:02.368Z,70.50
2022-12-31T11:54:56.855Z,59.60
2022-12-31T11:57:34.169Z,55.83
2022-12-31T12:00:09.755Z,52.67
2022-12-31T12:02:44.371Z,53.90
2022-12-31T12:05:16.880Z,53.05
2022-12-31T12:07:45.752Z,52.28
2022-12-31T12:10:29.128Z,52.78
2022-12-31T12:13:12.709Z,56.80
2022-12-31T12:15:46.181Z,55.45
2022-12-31T12:18:26.071Z,60.13
2022-12-31T12:21:02.320Z,55.78
2022-12-31T12:23:32.879Z,59.10
2022-12-31T12:26:02.690Z,61.40
2022-12-31T12:28:44.428Z,62.20
2022-12-31T12:31:21.233Z,64.35
2022-12-31T12:33:52.583Z,61.55
2022-12-31T12:36:22.584Z,64.68
2022-12-31T12:39:03.102Z,58.35
2022-12-31T12:41:31.846Z,55.00
2022-12-31T12:44:06.674Z,54.65
2022-12-31T12:46:42.591Z,51.28
2022-12-31T12:49:24.069Z,52.47
2022-12-31T12:52:16.966Z,59.72
2022-12-31T12:55:01.272Z,57.28
2022-12-31T12:57:36.113Z,59.42
2022-12-31T13:00:17.273Z,61.72
2022-12-31T13:03:19.891Z,57.50
2022-12-31T13:08:45.617Z,53.80
2022-12-31T13:11:30.587Z,55.97
2022-12-31T13:14:08.692Z,56.03
2022-12-31T13:16:47.429Z,54.95
2022-12-31T13:19:21.276Z,53.60
2022-12-31T13:21:55.763Z,55.47
2022-12-31T13:24:36.780Z,54.60
2022-12-31T13:27:14.279Z,56.15
2022-12-31T13:29:45.569Z,52.90
2022-12-31T13:32:21.074Z,56.95
2022-12-31T13:34:53.328Z,60.10
2022-12-31T13:37:29.116Z,57.85
2022-12-31T13:40:02.920Z,56.60
2022-12-31T13:42:40.688Z,61.67
2022-12-31T13:45:14.782Z,57.28
2022-12-31T13:47:53.072Z,60.47
2022-12-31T13:50:26.494Z,61.30
2022-12-31T13:52:59.764Z,58.78
2022-12-31T13:55:33.962Z,63.13
2022-12-31T13:58:07.907Z,56.40
2022-12-31T14:00:41.533Z,56.53
2022-12-31T14:03:19.933Z,52.80
2022-12-31T14:05:55.125Z,54.58
2022-12-31T14:08:23.809Z,58.75
2022-12-31T14:11:04.255Z,55.17
2022-12-31T14:13:44.872Z,57.78
2022-12-31T14:16:22.484Z,57.17
2022-12-31T14:19:02.234Z,63.75
2022-12-31T14:21:36.364Z,62.28
2022-12-31T14:24:11.706Z,62.90
2022-12-31T14:26:43.226Z,59.75
2022-12-31T14:29:22.207Z,56.75
2022-12-31T14:32:15.525Z,58.08
2022-12-31T14:34:57.239Z,53.15
2022-12-31T14:37:34.421Z,51.60
2022-12-31T14:40:18.704Z,51.47
2022-12-31T14:42:56.974Z,53.55
2022-12-31T14:45:36.546Z,54.50
2022-12-31T14:48:21.569Z,56.10
2022-12-31T14:50:56.129Z,57.78
2022-12-31T14:53:26.698Z,57.13
2022-12-31T14:56:02.058Z,52.63
2022-12-31T14:58:36.312Z,59.53
2022-12-31T15:01:09.030Z,60.45
2022-12-31T15:03:45.037Z,57.83
2022-12-31T15:06:36.353Z,60.17
2022-12-31T15:09:12.749Z,56.03
2022-12-31T15:11:52.657Z,55.45
2022-12-31T15:14:44.187Z,55.85
2022-12-31T15:17:27.697Z,54.75
2022-12-31T15:20:35.457Z,50.55
2022-12-31T15:23:15.906Z,52.95
2022-12-31T15:25:49.624Z,52.88
2022-12-31T15:28:31.771Z,55.33
2022-12-31T15:31:05.783Z,53.63
2022-12-31T15:33:40.388Z,51.63
2022-12-31T15:36:19.286Z,51.13
2022-12-31T15:38:54.067Z,48.70
2022-12-31T15:41:37.470Z,50.05
2022-12-31T15:44:15.023Z,54.85
2022-12-31T15:46:44.630Z,53.10
2022-12-31T15:49:18.346Z,53.50
2022-12-31T15:51:51.803Z,63.15
2022-12-31T15:54:28.963Z,60.88
2022-12-31T15:56:57.755Z,61.28
2022-12-31T15:59:28.399Z,55.85
2022-12-31T16:01:58.565Z,58.88
2022-12-31T16:04:29.969Z,53.63
2022-12-31T16:07:01.455Z,61.10
2022-12-31T16:09:37.012Z,59.25
2022-12-31T16:12:13.011Z,60.08
2022-12-31T16:14:45.952Z,59.60
2022-12-31T16:17:29.594Z,63.00
2022-12-31T16:19:59.862Z,62.75
2022-12-31T16:22:31.240Z,62.03
2022-12-31T16:25:29.622Z,60.65
2022-12-31T16:27:52.148Z,62.92
2022-12-31T16:30:23.326Z,59.17
2022-12-31T16:32:53.357Z,63.63
2022-12-31T16:35:26.464Z,86.50
2022-12-31T16:38:12.371Z,74.00
2022-12-31T16:40:43.596Z,94.78
2022-12-31T16:43:28.305Z,149.75
2022-12-31T16:45:59.127Z,92.55
2022-12-31T16:48:28.086Z,113.55
2022-12-31T16:50:58.120Z,81.00
2022-12-31T16:53:29.982Z,70.20
2022-12-31T16:56:04.746Z,95.82
2022-12-31T16:58:35.856Z,78.68
2022-12-31T17:01:14.419Z,80.05
2022-12-31T17:03:47.673Z,83.05
2022-12-31T17:06:18.109Z,81.53
2022-12-31T17:08:50.601Z,92.28
2022-12-31T17:11:24.116Z,90.35
2022-12-31T17:14:02.003Z,92.35
2022-12-31T17:16:30.605Z,99.95
2022-12-31T17:18:59.487Z,92.90
2022-12-31T17:21:30.010Z,84.18
2022-12-31T17:24:04.428Z,84.32
2022-12-31T17:26:38.464Z,83.05
2022-12-31T17:29:08.806Z,79.70
2022-12-31T17:31:38.499Z,82.57
2022-12-31T17:34:24.316Z,81.47
2022-12-31T17:37:05.271Z,84.18
2022-12-31T17:39:51.100Z,84.07
2022-12-31T17:42:29.153Z,80.93
2022-12-31T17:45:03.330Z,86.88
2022-12-31T17:47:37.347Z,79.50
2022-12-31T17:50:17.579Z,77.97
2022-12-31T17:52:46.427Z,86.70
2022-12-31T17:55:15.000Z,78.85
2022-12-31T17:57:52.270Z,79.38
2022-12-31T18:00:22.760Z,87.47
2022-12-31T18:02:51.978Z,97.28
2022-12-31T18:05:25.596Z,89.80
2022-12-31T18:07:54.709Z,80.57
2022-12-31T18:10:25.518Z,85.28
2022-12-31T18:12:55.743Z,94.05
2022-12-31T18:15:26.469Z,99.07
2022-12-31T18:17:54.994Z,104.57
2022-12-31T18:20:25.039Z,110.93
2022-12-31T18:22:53.993Z,123.25
2022-12-31T18:25:24.420Z,124.05
2022-12-31T18:27:54.848Z,123.00
2022-12-31T18:30:23.735Z,115.72
2022-12-31T18:32:52.404Z,109.15
2022-12-31T18:38:15.936Z,112.25
2022-12-31T18:40:49.960Z,104.78
2022-12-31T18:43:22.673Z,108.25
2022-12-31T18:45:53.339Z,107.93
2022-12-31T18:48:21.653Z,106.38
2022-12-31T18:50:50.567Z,105.10
2022-12-31T18:53:22.726Z,100.65
2022-12-31T18:55:53.847Z,99.47
2022-12-31T18:58:26.309Z,103.30
2022-12-31T19:00:54.634Z,91.25
2022-12-31T19:03:28.374Z,98.65
2022-12-31T19:05:56.669Z,87.20
2022-12-31T19:08:25.021Z,87.40
2022-12-31T19:10:54.126Z,89.20
2022-12-31T19:13:25.100Z,91.78
2022-12-31T19:16:01.187Z,93.40
2022-12-31T19:18:29.476Z,87.85
2022-12-31T19:20:58.180Z,85.40
2022-12-31T19:23:26.891Z,89.47
2022-12-31T19:25:55.978Z,88.25
2022-12-31T19:28:27.982Z,86.50
2022-12-31T19:33:24.794Z,91.07
2022-12-31T19:35:53.422Z,96.32
2022-12-31T19:38:24.339Z,98.65
2022-12-31T19:40:54.401Z,93.35
2022-12-31T19:43:24.871Z,97.75
2022-12-31T19:45:55.019Z,101.00
2022-12-31T19:48:32.346Z,105.95
2022-12-31T19:51:02.217Z,95.68
2022-12-31T19:53:30.658Z,100.30
2022-12-31T19:56:02.448Z,97.80
2022-12-31T20:01:03.099Z,100.10
2022-12-31T20:03:32.934Z,108.65
2022-12-31T20:06:07.555Z,108.95
2022-12-31T20:08:36.676Z,107.65
2022-12-31T20:11:13.014Z,113.07
2022-12-31T20:13:42.349Z,112.68
2022-12-31T20:16:15.610Z,116.70
2022-12-31T20:18:48.387Z,114.60
2022-12-31T20:21:19.382Z,113.40
2022-12-31T20:23:48.901Z,121.47
2022-12-31T20:26:17.985Z,123.47
2022-12-31T20:28:48.134Z,119.20
2022-12-31T20:31:20.911Z,112.05
2022-12-31T20:33:49.548Z,114.75
2022-12-31T20:36:19.237Z,113.20
2022-12-31T20:38:48.547Z,120.88
2022-12-31T20:41:18.410Z,121.65
2022-12-31T20:43:47.609Z,132.48
2022-12-31T20:46:19.891Z,134.98
2022-12-31T20:48:49.693Z,152.88
2022-12-31T20:51:19.721Z,147.85
2022-12-31T20:53:49.523Z,202.52
2022-12-31T20:56:18.729Z,180.60
2022-12-31T20:58:48.401Z,159.15
2022-12-31T21:01:20.856Z,162.40
2022-12-31T21:04:04.865Z,189.55
2022-12-31T21:06:36.568Z,179.75
2022-12-31T21:09:07.299Z,244.35
2022-12-31T21:11:53.493Z,225.87
2022-12-31T21:14:22.710Z,221.57
2022-12-31T21:16:52.302Z,236.35
2022-12-31T21:19:20.815Z,231.60
2022-12-31T21:21:49.848Z,209.20
2022-12-31T21:24:23.624Z,154.25
2022-12-31T21:26:56.179Z,161.10
2022-12-31T21:31:55.048Z,275.20
2022-12-31T21:34:23.528Z,189.57
2022-12-31T21:36:53.585Z,164.25
2022-12-31T21:39:22.477Z,140.63
2022-12-31T21:41:53.507Z,191.10
2022-12-31T21:44:28.469Z,153.23
2022-12-31T21:47:35.354Z,411.75
2022-12-31T21:50:06.212Z,251.50
2022-12-31T21:52:35.875Z,309.73
2022-12-31T21:55:23.261Z,298.48
2022-12-31T21:58:24.899Z,252.38
2022-12-31T22:00:58.839Z,256.77
2022-12-31T22:03:32.035Z,227.65
2022-12-31T22:06:02.943Z,206.80
2022-12-31T22:08:32.156Z,214.67
2022-12-31T22:11:00.848Z,217.07
2022-12-31T22:13:29.759Z,202.32
2022-12-31T22:16:04.843Z,199.82
2022-12-31T22:18:41.485Z,194.23
2022-12-31T22:21:18.414Z,206.98
2022-12-31T22:23:49.472Z,206.25
2022-12-31T22:26:19.978Z,208.20
2022-12-31T22:28:48.862Z,185.60
2022-12-31T22:31:20.643Z,209.73
2022-12-31T22:33:50.496Z,204.02
2022-12-31T22:36:21.484Z,211.32
2022-12-31T22:38:51.403Z,223.70
2022-12-31T22:41:21.988Z,220.57
2022-12-31T22:43:55.989Z,209.88
2022-12-31T22:46:30.821Z,211.32
2022-12-31T22:49:03.781Z,262.55
2022-12-31T22:51:54.723Z,635.63
2022-12-31T22:54:22.899Z,232.00
2022-12-31T22:56:51.236Z,229.15
2022-12-31T22:59:19.831Z,269.50
2022-12-31T23:01:48.754Z,244.38
2022-12-31T23:04:18.370Z,216.35
2022-12-31T23:06:47.220Z,250.45
2022-12-31T23:09:35.592Z,232.85
2022-12-31T23:12:06.890Z,212.02
2022-12-31T23:14:53.214Z,215.48
2022-12-31T23:17:43.508Z,205.13
2022-12-31T23:20:33.682Z,223.57
2022-12-31T23:23:11.806Z,242.32
2022-12-31T23:25:42.697Z,211.00
2022-12-31T23:28:13.817Z,218.82
2022-12-31T23:30:43.447Z,218.95
2022-12-31T23:33:16.146Z,233.43
2022-12-31T23:35:46.270Z,238.10
2022-12-31T23:38:17.140Z,206.00
2022-12-31T23:40:45.809Z,174.80
2022-12-31T23:43:20.832Z,179.60
2022-12-31T23:45:50.354Z,200.63
2022-12-31T23:48:18.696Z,193.80
2022-12-31T23:50:54.000Z,199.02
2022-12-31T23:53:23.288Z,206.88
2022-12-31T23:55:55.937Z,240.98
2022-12-31T23:58:24.539Z,232.15
